Latest Coastal Weather Observations for Nullarbor

IDS60701

Issued at 6:21 pm CDT Saturday 25 March 2017 (issued every 10 minutes, with the page automatically refreshed every 10 minutes)

About coastal observations | Map of coastal stations | Coastal observations for SA | Marine services | Other Formats
Station Details ID: 018106 Name: NULLARBOR Lat: -31.45 Lon: 130.90 Height: 64.0 m
Data from the previous 72 hours. | See also: Recent months at Nullarbor
Date/Time
CDT
Temp
°C
Wind Pressure Rain since
9am
mm
Weather Cloud Vis
km
Sea
Height
m
Swell
Dir  Spd
kts
Gust
kts
hPa Trend Height
m
Period
s
Dir
25/06:00pm 22.6 SSE 15 20 1011.5 - 0.0 - - 10 - - - -
25/05:30pm 22.9 SSE 15 18 1011.5 - 0.0 - - 10 - - - -
25/05:00pm 23.6 SE 15 19 1011.0 - 0.0 - - 10 - - - -
25/04:30pm 24.1 SSE 17 20 1011.1 - 0.0 - - 10 - - - -
25/04:00pm 24.2 SSE 17 20 1011.3 - 0.0 - - 10 - - - -
25/03:30pm 24.2 SSE 14 17 1011.3 - 0.0 - - 10 - - - -
25/03:00pm 24.1 SE 14 17 1011.5 - 0.0 - - 10 - - - -
25/02:30pm 24.6 SE 13 16 1012.1 - 0.0 - - 10 - - - -
25/02:00pm 24.9 SE 13 16 1012.6 - 0.0 - - 10 - - - -
25/01:30pm 24.7 SE 14 17 1013.1 - 0.0 - - 10 - - - -
25/01:00pm 24.8 SE 12 15 1013.4 - 0.0 - - 10 - - - -
25/12:30pm 24.5 SE 10 13 1013.9 - 0.0 - - 10 - - - -
25/12:00pm 24.0 ESE 10 12 1014.3 - 0.0 - - 10 - - - -
25/11:30am 23.1 SE 10 12 1014.4 - 0.0 - - 10 - - - -
25/11:00am 23.0 SSE 10 13 1014.2 - 0.0 - - 10 - - - -
25/10:30am 22.8 S 11 14 1014.5 - 0.0 - - 10 - - - -
25/10:00am 22.5 S 10 13 1014.4 - 0.0 - - 10 - - - -
25/09:30am 21.5 S 8 10 1014.4 - 0.0 - - 10 - - - -
25/09:00am 20.7 SSE 8 11 1013.8 - 0.0 - - 10 - - - -
25/08:39am 20.3 SSE 7 8 1013.9 - 0.0 - Partly cloudy 10 - - - -
25/08:30am 20.3 SSE 7 8 1013.8 - 0.0 - Partly cloudy 10 - - - -
25/08:00am 20.2 S 9 11 1013.5 - 0.0 - Cloudy 10 - - - -
25/07:30am 20.1 SSW 8 11 1013.4 - 0.0 - Cloudy 10 - - - -
25/07:09am 19.9 SSW 7 8 1013.4 - 0.0 - Partly cloudy 10 - - - -
25/07:00am 19.7 S 6 7 1013.2 - 0.0 - Partly cloudy 10 - - - -
25/06:30am 19.3 SSW 5 6 1013.3 - 0.0 - Cloudy 10 - - - -
25/06:00am 18.9 SW 5 6 1013.1 - 0.0 - Partly cloudy 10 - - - -
25/05:30am 18.9 SSW 5 6 1013.1 - 0.0 - Partly cloudy 10 - - - -
25/05:00am 19.0 SW 5 6 1013.4 - 0.0 - - 10 - - - -
25/04:30am 19.1 SW 6 8 1013.4 - 0.0 - - 10 - - - -
25/04:00am 18.8 WSW 8 10 1013.6 - 0.0 - - 10 - - - -
25/03:30am 18.4 WSW 7 9 1013.4 - 0.0 - - 10 - - - -
25/03:00am 18.3 WSW 7 8 1013.5 - 0.0 - - 10 - - - -
25/02:30am 18.3 SW 5 7 1013.0 - 0.0 - - 10 - - - -
25/02:00am 18.4 SSW 5 6 1012.7 - 0.0 - - 10 - - - -
25/01:30am 18.9 ESE 5 6 1012.8 - 0.0 - - 10 - - - -
25/01:00am 19.4 E 7 8 1013.0 - 0.0 - - 10 - - - -
25/12:30am 19.3 ESE 6 7 1013.5 - 0.0 - - 10 - - - -
25/12:00am 19.5 SE 6 7 1014.0 - 0.0 - - 10 - - - -
 
Date/Time
CDT
Temp
°C
Wind Pressure Rain since
9am
mm
Weather Cloud Vis
km
Sea
Height
m
Swell
Dir  Spd
kts
Gust
kts
hPa Trend Height
m
Period
s
Dir
24/11:30pm 20.3 S 5 7 1014.4 - 0.0 - - 10 - - - -
24/11:00pm 20.9 S 6 7 1014.5 - 0.0 - - 10 - - - -
24/10:30pm 21.4 SE 7 9 1014.4 - 0.0 - - 10 - - - -
24/10:00pm 21.4 SSE 7 9 1014.5 - 0.0 - - 10 - - - -
24/09:30pm 21.4 SSE 8 10 1014.1 - 0.0 - - 10 - - - -
24/09:00pm 21.5 SSE 9 11 1014.1 - 0.0 - - 10 - - - -
24/08:30pm 21.7 S 10 13 1014.1 - 0.0 - - 10 - - - -
24/08:00pm 22.2 SSE 11 15 1013.5 - 0.0 - Partly cloudy 10 - - - -
24/07:30pm 22.7 S 13 17 1013.6 - 0.0 - - 10 - - - -
24/07:00pm 23.2 S 14 19 1013.3 - 0.0 - - 10 - - - -
24/06:30pm 23.8 S 16 20 1012.8 - 0.0 - - 10 - - - -
24/06:00pm 25.2 S 16 19 1012.6 - 0.0 - - 10 - - - -
24/05:30pm 25.2 SSE 15 18 1012.5 - 0.0 - - 10 - - - -
24/05:00pm 26.0 S 18 21 1012.7 - 0.0 - - 10 - - - -
24/04:30pm 27.8 S 16 21 1012.3 - 0.0 - - 10 - - - -
24/04:00pm 28.2 S 18 26 1011.7 - 0.0 - - 10 - - - -
24/03:30pm 27.6 S 18 23 1011.7 - 0.0 - - 10 - - - -
24/03:00pm 29.1 SSE 18 23 1011.7 - 0.0 - - 10 - - - -
24/02:30pm 27.8 S 16 22 1012.3 - 0.0 - - 10 - - - -
24/02:00pm 28.6 S 18 23 1012.6 - 0.0 - - 10 - - - -
24/01:30pm 26.8 SSE 18 23 1012.5 - 0.0 - - 10 - - - -
24/01:00pm 25.0 SSE 17 21 1013.1 - 0.0 - - 10 - - - -
24/12:30pm 24.0 S 17 23 1013.7 - 0.0 - - 10 - - - -
24/12:00pm 23.2 SSW 15 21 1014.0 - 0.0 - - 10 - - - -
24/11:30am 24.2 SSW 12 15 1013.7 - 0.0 - - 10 - - - -
24/11:00am 23.5 SSE 8 13 1013.3 - 0.0 - - 10 - - - -
24/10:30am 23.2 SSE 6 13 1013.4 - 0.0 - - 10 - - - -
24/10:00am 22.0 E 5 7 1012.6 - 0.0 - - 10 - - - -
24/09:30am 20.6 SSE 5 5 1012.6 - 0.0 - - 8 - - - -
24/09:00am 19.5 S 5 7 1012.3 - 0.0 - Mostly clear 8 - - - -
24/08:59am 19.6 S 5 7 1012.3 - 0.0 - - 8 - - - -
24/08:30am 18.0 SSE 5 6 1011.9 - 0.0 - - 7 - - - -
24/08:00am 17.5 SE 6 7 1011.5 - 0.0 - - 7 - - - -
24/07:41am 17.7 SE 5 6 1011.6 - 0.0 - - 7 - - - -
24/07:30am 18.1 E 5 6 1011.5 - 0.0 - - 8 - - - -
24/07:00am 18.5 E 7 8 1011.0 - 0.0 - - 8 - - - -
24/06:30am 18.8 E 6 7 1011.0 - 0.0 - - 9 - - - -
24/06:00am 19.1 E 8 11 1011.0 - 0.0 - Mostly cloudy 10 - - - -
24/05:30am 19.1 E 9 12 1010.9 - 0.0 - - 9 - - - -
24/05:00am 19.1 ESE 11 14 1011.1 - 0.0 - - 9 - - - -
24/04:30am 19.0 SE 9 12 1011.8 - 0.0 - - 9 - - - -
24/04:00am 18.9 SSE 8 10 1011.9 - 0.0 - - 9 - - - -
24/03:30am 19.0 SE 8 9 1011.9 - 0.0 - - 9 - - - -
24/03:00am 19.2 SE 9 12 1011.9 - 0.0 - - 10 - - - -
24/02:30am 19.4 SSE 9 11 1012.3 - 0.0 - - 10 - - - -
24/02:00am 19.6 SE 10 13 1012.4 - 0.0 - - 10 - - - -
24/01:30am 19.7 SSE 10 12 1012.7 - 0.0 - - 10 - - - -
24/01:00am 20.0 SE 10 12 1012.9 - 0.0 - - 10 - - - -
24/12:30am 20.1 SSE 11 13 1013.3 - 0.0 - - 10 - - - -
24/12:00am 20.2 ESE 12 16 1013.1 - 0.0 - Mostly clear 10 - - - -
 
Date/Time
CDT
Temp
°C
Wind Pressure Rain since
9am
mm
Weather Cloud Vis
km
Sea
Height
m
Swell
Dir  Spd
kts
Gust
kts
hPa Trend Height
m
Period
s
Dir
23/11:30pm 20.2 ESE 12 16 1013.3 - 0.0 - - 10 - - - -
23/11:00pm 20.3 SE 13 17 1013.8 - 0.0 - - 10 - - - -
23/10:30pm 20.5 SE 15 18 1013.6 - 0.0 - - 10 - - - -
23/10:00pm 20.2 SE 16 20 1013.4 - 0.0 - - 10 - - - -
23/09:30pm 20.1 SSE 15 19 1013.7 - 0.0 - - 10 - - - -
23/09:00pm 20.1 SSE 15 20 1013.6 - 0.0 - - 10 - - - -
23/08:30pm 20.4 SSE 14 19 1013.5 - 0.0 - - 10 - - - -
23/08:00pm 20.6 SE 13 17 1012.7 - 0.0 - - 10 - - - -
23/07:30pm 21.2 SE 14 18 1012.7 - 0.0 - - 10 - - - -
23/07:00pm 21.8 SE 15 20 1012.4 - 0.0 - - 10 - - - -
23/06:30pm 21.9 SE 17 22 1012.6 - 0.0 - - 10 - - - -
23/06:00pm 22.5 SSE 15 20 1012.4 - 0.0 - - 10 - - - -
23/05:30pm 23.1 SE 19 22 1011.9 - 0.0 - - 10 - - - -
23/05:00pm 23.9 SE 19 22 1011.7 - 0.0 - - 10 - - - -
23/04:30pm 25.2 SE 18 21 1012.0 - 0.0 - - 10 - - - -
23/04:00pm 25.1 SE 17 21 1012.1 - 0.0 - - 10 - - - -
23/03:30pm 25.2 SE 15 20 1012.4 - 0.0 - - 10 - - - -
23/03:00pm 25.5 SE 15 18 1013.0 - 0.0 - - 10 - - - -
23/02:30pm 26.4 SSE 16 19 1013.2 - 0.0 - - 10 - - - -
23/02:00pm 26.1 SSE 15 19 1013.7 - 0.0 - - 10 - - - -
23/01:30pm 27.5 SSE 12 15 1014.1 - 0.0 - - 10 - - - -
23/01:00pm 27.6 SE 10 13 1014.3 - 0.0 - - 10 - - - -
23/12:30pm 27.2 SE 12 17 1014.5 - 0.0 - - 10 - - - -
23/12:00pm 27.6 E 10 13 1014.9 - 0.0 - - 10 - - - -
23/11:30am 26.3 ENE 9 13 1015.4 - 0.0 - - 10 - - - -
23/11:00am 24.1 ENE 13 16 1015.4 - 0.0 - - 10 - - - -
23/10:30am 22.5 ENE 12 16 1015.0 - 0.0 - - 10 - - - -
23/10:00am 21.0 E 12 16 1015.4 - 0.0 - - 10 - - - -
23/09:30am 19.2 E 7 12 1015.4 - 0.0 - - 10 - - - -
23/09:00am 17.1 ESE 5 7 1015.2 - 0.0 - - 10 - - - -
23/08:30am 15.2 E 5 7 1014.9 - 0.0 - - 8 - - - -
23/08:00am 15.0 NW 2 5 1015.2 - 0.0 - - 8 - - - -
23/07:30am 15.7 E 5 7 1014.9 - 0.0 - - 9 - - - -
23/07:00am 16.5 ENE 7 10 1014.5 - 0.0 - - 9 - - - -
23/06:30am 16.7 E 9 11 1013.8 - 0.0 - - 9 - - - -
23/06:00am 16.9 ESE 10 12 1013.7 - 0.0 - Mostly clear 9 - - - -
23/05:30am 17.2 ESE 10 13 1013.7 - 0.0 - - 9 - - - -
23/05:05am 17.4 ESE 10 12 1013.8 - 0.0 - - 8 - - - -
23/05:00am 17.5 ESE 10 12 1013.8 - 0.0 - - 8 - - - -
23/04:39am 17.6 ESE 9 12 1014.0 - 0.0 - - 7 - - - -
23/04:30am 17.7 ESE 9 11 1013.9 - 0.0 - - 8 - - - -
23/04:00am 18.0 ESE 11 14 1014.1 - 0.0 - - 8 - - - -
23/03:57am 18.0 ESE 11 14 1014.1 - 0.0 - - 8 - - - -
23/03:42am 18.1 ESE 11 13 1014.3 - 0.0 - - 7 - - - -
23/03:30am 18.1 ESE 11 13 1014.5 - 0.0 - - 9 - - - -
23/03:00am 18.3 ESE 11 14 1014.9 - 0.0 - - 10 - - - -
23/02:30am 18.3 SE 11 16 1015.2 - 0.0 - - 10 - - - -
23/02:00am 18.2 SE 11 14 1015.3 - 0.0 - - 10 - - - -
23/01:30am 18.3 ESE 10 13 1015.7 - 0.0 - - 10 - - - -
23/01:00am 18.5 ESE 13 18 1015.9 - 0.0 - - 10 - - - -
23/12:30am 18.6 SE 14 17 1016.4 - 0.0 - Partly cloudy 10 - - - -
23/12:03am 18.7 SE 15 19 1016.8 - 0.0 - Partly cloudy 10 - - - -
23/12:00am 18.7 SE 14 20 1016.9 - 0.0 - Partly cloudy 10 - - - -
 
Date/Time
CDT
Temp
°C
Wind Pressure Rain since
9am
mm
Weather Cloud Vis
km
Sea
Height
m
Swell
Dir  Spd
kts
Gust
kts
hPa Trend Height
m
Period
s
Dir
22/11:43pm 18.9 SE 14 19 1017.1 - 0.0 - Partly cloudy 10 - - - -
22/11:30pm 18.8 SE 14 20 1017.2 - 0.0 - Partly cloudy 10 - - - -
22/11:00pm 18.9 SE 15 20 1017.2 - 0.0 - Partly cloudy 10 - - - -
22/10:30pm 18.8 SE 14 19 1017.1 - 0.0 - Partly cloudy 10 - - - -
22/10:19pm 18.9 SE 14 20 1017.0 - 0.0 - Partly cloudy 10 - - - -
22/10:15pm 19.0 SE 15 20 1017.0 - 0.0 - Partly cloudy 10 - - - -
22/10:00pm 19.1 SE 15 21 1016.9 - 0.0 - Partly cloudy 10 - - - -
22/09:58pm 19.1 SE 15 21 1016.9 - 0.0 - Partly cloudy 10 - - - -
22/09:30pm 19.2 SE 15 22 1016.8 - 0.0 - Partly cloudy 10 - - - -
22/09:00pm 19.1 SE 13 16 1016.5 - 0.0 - - 10 - - - -
22/08:30pm 19.4 SE 15 21 1016.3 - 0.0 - - 10 - - - -
22/08:00pm 19.7 SE 16 21 1016.1 - 0.0 - - 10 - - - -
22/07:30pm 20.2 SE 16 22 1016.0 - 0.0 - - 10 - - - -
22/07:00pm 20.7 SE 15 19 1016.0 - 0.0 - - 10 - - - -
22/06:30pm 21.1 SE 17 23 1015.7 - 0.0 - - 10 - - - -

Other Formats:

Comma delimited format used in spreadsheet applications
http://www.bom.gov.au/fwo/IDS60701/IDS60701.94651.axf

JavaScript Object Notation format (JSON) in row-major order
http://www.bom.gov.au/fwo/IDS60701/IDS60701.94651.json